Time;durP1;ratioP1;P1;durP2;ratioP2;P2;SDS_P1;SDS_P2;PMS_P1;PMS_P2;Temp;Humidity;BMP_temperature;BMP_pressure;BME280_temperature;BME280_humidity;BME280_pressure;Samples;Min_cycle;Max_cycle;Signal;HPM_P1;HPM_P2
2024/01/05 00:01:38;;;;;;;316.90;170.00;;;;;;;0.72;98.87;99106.13;4914263;29;20044;-81
2024/01/05 00:04:24;;;;;;;342.15;179.05;;;;;;;0.73;98.88;99102.53;4913739;29;20049;-84
2024/01/05 00:07:11;;;;;;;334.08;176.63;;;;;;;0.69;98.75;99112.53;4910779;29;20048;-85
2024/01/05 00:09:56;;;;;;;338.13;173.90;;;;;;;0.68;99.28;99110.88;4899355;29;20435;-81
2024/01/05 00:12:43;;;;;;;359.27;188.13;;;;;;;0.65;98.14;99106.00;4907657;29;20048;-83
2024/01/05 00:15:30;;;;;;;345.08;185.65;;;;;;;0.57;98.55;99114.69;4913179;29;20053;-84
2024/01/05 00:18:18;;;;;;;343.90;189.63;;;;;;;0.54;98.45;99119.44;4901555;29;20044;-87
2024/01/05 00:21:04;;;;;;;328.00;177.23;;;;;;;0.48;98.95;99120.91;4892920;29;20399;-87
2024/01/05 00:23:50;;;;;;;339.40;181.43;;;;;;;0.42;98.29;99122.41;4883264;29;20044;-87
2024/01/05 00:26:40;;;;;;;323.20;173.23;;;;;;;0.37;98.71;99129.91;4894843;29;20040;-84
2024/01/05 00:29:25;;;;;;;316.58;173.77;;;;;;;0.35;97.93;99139.75;4903769;29;20056;-87
2024/01/05 00:32:11;;;;;;;341.33;187.65;;;;;;;0.21;97.95;99143.00;4881291;29;20040;-87
2024/01/05 00:34:57;;;;;;;330.92;179.50;;;;;;;0.16;98.46;99142.72;4882429;29;20049;-83
2024/01/05 00:37:42;;;;;;;345.30;184.00;;;;;;;0.10;98.12;99138.94;4902793;29;20044;-86
2024/01/05 00:40:28;;;;;;;342.13;179.07;;;;;;;0.11;98.83;99137.16;4887953;29;20479;-83
2024/01/05 00:43:13;;;;;;;321.70;165.32;;;;;;;0.06;98.65;99135.00;4904907;29;20510;-87
2024/01/05 00:45:59;;;;;;;323.90;163.48;;;;;;;0.10;98.58;99131.13;4874384;29;20041;-87
2024/01/05 00:48:44;;;;;;;334.13;179.93;;;;;;;0.07;98.40;99143.69;4880791;29;20049;-85
2024/01/05 00:51:30;;;;;;;343.05;179.43;;;;;;;0.06;98.56;99142.84;4889871;29;20052;-85
2024/01/05 00:54:16;;;;;;;327.95;166.23;;;;;;;-0.07;98.55;99135.50;4881831;29;20056;-85
2024/01/05 00:57:01;;;;;;;312.67;164.45;;;;;;;-0.11;98.18;99136.00;4880747;29;20052;-86
2024/01/05 00:59:48;;;;;;;301.63;156.32;;;;;;;-0.19;98.62;99131.59;4902109;29;20399;-86
2024/01/05 01:02:33;;;;;;;304.10;156.85;;;;;;;-0.20;98.48;99129.97;4887436;29;20048;-82
2024/01/05 01:05:19;;;;;;;273.75;139.48;;;;;;;-0.20;98.30;99131.75;4890111;29;20044;-82
2024/01/05 01:08:06;;;;;;;267.60;139.05;;;;;;;-0.12;98.54;99140.44;4907114;29;20053;-80
2024/01/05 01:10:53;;;;;;;185.15;86.82;;;;;;;-0.16;98.41;99136.47;4903228;29;20044;-86
2024/01/05 01:13:38;;;;;;;207.77;101.90;;;;;;;-0.18;98.84;99130.63;4895734;29;20052;-83
2024/01/05 01:16:23;;;;;;;211.18;108.25;;;;;;;-0.30;98.28;99122.28;4890973;29;20061;-81
2024/01/05 01:19:09;;;;;;;218.52;110.25;;;;;;;-0.33;99.03;99132.25;4908603;29;20048;-81
2024/01/05 01:21:55;;;;;;;208.13;107.68;;;;;;;-0.31;98.27;99135.53;4903996;29;20053;-86
2024/01/05 01:24:40;;;;;;;240.38;118.70;;;;;;;-0.36;97.98;99133.38;4879599;29;20048;-82
2024/01/05 01:27:26;;;;;;;238.05;123.28;;;;;;;-0.43;98.22;99126.38;4893001;29;20048;-85
2024/01/05 01:30:11;;;;;;;281.92;142.38;;;;;;;-0.37;98.20;99130.94;4891611;29;20403;-86
2024/01/05 01:32:57;;;;;;;244.55;128.93;;;;;;;-0.40;98.65;99136.50;4880319;29;20052;-82
2024/01/05 01:35:42;;;;;;;215.88;111.40;;;;;;;-0.41;98.78;99129.63;4901255;29;20040;-81
2024/01/05 01:38:28;;;;;;;164.45;88.63;;;;;;;-0.48;98.43;99130.25;4903256;29;20048;-82
2024/01/05 01:41:14;;;;;;;168.20;77.43;;;;;;;-0.43;98.75;99136.81;4906521;29;20051;-81
2024/01/05 01:43:59;;;;;;;161.95;79.30;;;;;;;-0.45;98.89;99141.38;4903980;29;20057;-83
2024/01/05 01:46:45;;;;;;;155.13;76.35;;;;;;;-0.51;98.37;99135.00;4881326;29;20484;-83
2024/01/05 01:49:31;;;;;;;164.55;79.30;;;;;;;-0.56;98.38;99143.31;4901567;29;20040;-86
2024/01/05 01:52:17;;;;;;;187.00;92.07;;;;;;;-0.56;98.26;99139.88;4905541;29;20056;-83
2024/01/05 01:55:03;;;;;;;216.43;108.97;;;;;;;-0.58;98.85;99137.44;4906124;29;20043;-86
2024/01/05 01:57:49;;;;;;;204.48;101.05;;;;;;;-0.67;98.34;99132.34;4891966;29;20049;-84
2024/01/05 02:00:37;;;;;;;213.18;106.25;;;;;;;-0.68;98.83;99141.97;4911091;29;20044;-82
2024/01/05 02:03:22;;;;;;;193.55;96.63;;;;;;;-0.73;98.98;99133.78;4905106;29;20392;-87
2024/01/05 02:06:08;;;;;;;215.02;97.97;;;;;;;-0.76;98.57;99147.16;4903109;29;20040;-84
2024/01/05 02:08:54;;;;;;;192.13;95.20;;;;;;;-0.81;98.13;99149.44;4889866;29;20044;-83
2024/01/05 02:11:40;;;;;;;177.10;85.95;;;;;;;-0.87;98.51;99153.50;4916551;29;20044;-83
2024/01/05 02:14:26;;;;;;;185.75;91.05;;;;;;;-0.85;98.45;99153.31;4897170;29;20048;-81
2024/01/05 02:17:33;;;;;;;164.43;75.20;;;;;;;-0.91;98.57;99146.94;4898774;29;20036;-83
2024/01/05 02:20:18;;;;;;;225.82;93.55;;;;;;;-0.87;98.32;99150.09;4900553;29;20044;-81
2024/01/05 02:23:07;;;;;;;173.68;77.47;;;;;;;-0.84;98.89;99153.19;4906071;29;20040;-81
2024/01/05 02:25:55;;;;;;;200.32;89.45;;;;;;;-0.83;99.15;99156.59;4907962;29;20044;-83
2024/01/05 02:28:40;;;;;;;184.90;83.05;;;;;;;-0.92;98.75;99166.19;4904047;29;20044;-85
2024/01/05 02:31:26;;;;;;;174.75;75.28;;;;;;;-0.89;98.61;99165.06;4903860;29;20048;-86
2024/01/05 02:34:11;;;;;;;119.65;54.42;;;;;;;-0.86;98.73;99165.56;4887090;29;20484;-86
2024/01/05 02:36:58;;;;;;;89.68;46.97;;;;;;;-0.76;98.13;99165.44;4872632;29;20040;-85
2024/01/05 02:39:43;;;;;;;101.38;50.38;;;;;;;-0.77;98.72;99163.81;4899758;29;20055;-83
2024/01/05 02:42:28;;;;;;;141.55;65.95;;;;;;;-0.80;98.42;99162.31;4899695;29;20049;-82
2024/01/05 02:45:20;;;;;;;153.40;79.05;;;;;;;-0.93;98.61;99173.22;4892552;29;20403;-81
2024/01/05 02:48:07;;;;;;;162.18;81.68;;;;;;;-1.01;98.89;99170.56;4899663;29;20036;-81
2024/01/05 02:50:52;;;;;;;171.68;88.80;;;;;;;-1.06;99.08;99169.41;4885312;29;20048;-85
2024/01/05 02:53:38;;;;;;;166.38;80.85;;;;;;;-1.09;98.72;99165.31;4877704;29;20418;-88
2024/01/05 02:56:24;;;;;;;175.48;86.78;;;;;;;-1.13;98.27;99171.78;4899502;29;20040;-86
2024/01/05 02:59:09;;;;;;;169.52;83.00;;;;;;;-1.17;98.67;99178.31;4878327;29;20052;-82
2024/01/05 03:01:55;;;;;;;164.45;85.05;;;;;;;-1.02;98.83;99176.75;4898983;29;20045;-82
2024/01/05 03:04:43;;;;;;;155.82;79.05;;;;;;;-0.99;98.99;99168.63;4884454;29;20056;-82
2024/01/05 03:07:29;;;;;;;167.65;89.10;;;;;;;-1.03;98.60;99169.91;4887639;29;20045;-82
2024/01/05 03:10:14;;;;;;;179.60;95.25;;;;;;;-0.96;98.44;99173.50;4899321;29;20049;-83
2024/01/05 03:13:00;;;;;;;185.85;98.63;;;;;;;-0.95;98.75;99185.56;4899175;29;20043;-85
2024/01/05 03:15:45;;;;;;;188.07;104.93;;;;;;;-0.88;98.57;99180.53;4898392;29;20060;-84
2024/01/05 03:18:31;;;;;;;215.02;111.65;;;;;;;-0.91;98.99;99187.88;4908998;29;20049;-82
2024/01/05 03:21:17;;;;;;;217.82;121.50;;;;;;;-1.01;98.60;99191.41;4901550;29;20491;-84
2024/01/05 03:24:02;;;;;;;218.10;110.78;;;;;;;-0.98;99.01;99191.09;4899342;29;20419;-83
2024/01/05 03:26:48;;;;;;;210.20;111.85;;;;;;;-0.92;98.74;99189.66;4903591;29;20048;-84
2024/01/05 03:29:33;;;;;;;195.52;105.72;;;;;;;-0.95;98.84;99193.41;4895502;29;20048;-80
2024/01/05 03:32:19;;;;;;;198.82;109.88;;;;;;;-0.84;99.08;99187.09;4905695;29;20056;-85
2024/01/05 03:35:05;;;;;;;348.45;140.05;;;;;;;-0.94;99.18;99195.06;4887560;29;20048;-81
2024/01/05 03:37:50;;;;;;;185.68;102.18;;;;;;;-1.01;98.78;99177.56;4906996;29;20048;-81
2024/01/05 03:40:37;;;;;;;271.25;127.75;;;;;;;-1.06;98.92;99182.44;4897982;29;20053;-83
2024/01/05 03:43:24;;;;;;;192.00;98.28;;;;;;;-1.09;98.63;99169.72;4897871;29;20056;-83
2024/01/05 03:46:10;;;;;;;275.27;129.18;;;;;;;-1.20;99.30;99183.81;4894368;29;20044;-80
2024/01/05 03:48:57;;;;;;;223.73;118.20;;;;;;;-1.27;98.66;99180.22;4904106;29;20048;-79
2024/01/05 03:51:42;;;;;;;212.00;115.65;;;;;;;-1.28;98.68;99182.00;4903953;29;20048;-84
2024/01/05 03:54:27;;;;;;;180.55;96.60;;;;;;;-1.29;98.77;99190.78;4886550;29;20403;-81
2024/01/05 03:57:13;;;;;;;204.88;111.75;;;;;;;-1.27;98.95;99194.06;4903035;29;20041;-81
2024/01/05 03:59:59;;;;;;;160.00;87.28;;;;;;;-1.19;99.08;99188.09;4904085;29;20475;-83
2024/01/05 04:02:44;;;;;;;157.45;86.50;;;;;;;-1.23;98.86;99181.53;4904799;29;20040;-82
2024/01/05 04:05:30;;;;;;;134.30;73.25;;;;;;;-1.26;98.88;99187.06;4898748;29;20049;-81
2024/01/05 04:08:15;;;;;;;122.40;66.03;;;;;;;-1.20;98.79;99186.44;4906455;29;20052;-80
2024/01/05 04:11:01;;;;;;;124.53;67.85;;;;;;;-1.23;98.89;99191.97;4905605;29;20488;-83
2024/01/05 04:13:47;;;;;;;137.68;74.10;;;;;;;-1.18;98.43;99205.38;4890140;29;20411;-81
2024/01/05 04:16:34;;;;;;;148.10;75.50;;;;;;;-1.22;99.41;99204.88;4903458;29;20057;-83
2024/01/05 04:19:20;;;;;;;152.65;80.47;;;;;;;-1.19;99.06;99211.56;4887479;29;20045;-83
2024/01/05 04:22:06;;;;;;;166.93;89.30;;;;;;;-1.31;99.10;99204.97;4904430;29;20048;-80
2024/01/05 04:24:52;;;;;;;160.23;87.38;;;;;;;-1.39;99.25;99203.13;4901975;29;20048;-81
2024/01/05 04:27:38;;;;;;;161.85;85.95;;;;;;;-1.44;98.81;99211.41;4904290;29;20056;-83
2024/01/05 04:30:24;;;;;;;169.65;91.78;;;;;;;-1.45;98.06;99204.53;4901296;29;20060;-83
2024/01/05 04:33:09;;;;;;;174.45;88.22;;;;;;;-1.46;98.98;99200.31;4902728;29;20044;-80
2024/01/05 04:35:54;;;;;;;152.43;75.65;;;;;;;-1.47;99.10;99197.88;4901726;29;20041;-81
2024/01/05 04:38:40;;;;;;;285.92;106.15;;;;;;;-1.53;99.18;99196.69;4901638;29;20056;-83
2024/01/05 04:41:26;;;;;;;167.25;88.38;;;;;;;-1.59;99.39;99207.72;4902566;29;20041;-81
2024/01/05 04:44:11;;;;;;;175.20;90.78;;;;;;;-1.63;98.86;99215.03;4889055;29;20048;-80
2024/01/05 04:46:57;;;;;;;184.80;94.65;;;;;;;-1.70;98.76;99215.75;4901073;29;20048;-85
2024/01/05 04:49:42;;;;;;;212.15;102.88;;;;;;;-1.70;99.07;99211.38;4901175;29;20048;-80
2024/01/05 04:52:28;;;;;;;177.27;92.65;;;;;;;-1.61;99.51;99208.84;4900908;29;20053;-81
2024/01/05 04:55:16;;;;;;;195.40;90.38;;;;;;;-1.53;99.02;99201.91;4893468;29;20044;-82
2024/01/05 04:58:02;;;;;;;247.25;101.63;;;;;;;-1.48;99.42;99204.84;4880280;29;20048;-85
2024/01/05 05:00:48;;;;;;;292.45;109.13;;;;;;;-1.55;99.03;99219.47;4886845;29;20044;-85
2024/01/05 05:03:34;;;;;;;279.38;97.07;;;;;;;-1.55;99.43;99208.22;4880680;29;20052;-85
2024/01/05 05:06:19;;;;;;;228.93;91.68;;;;;;;-1.57;99.09;99210.97;4874475;29;20044;-85
2024/01/05 05:09:05;;;;;;;237.43;93.38;;;;;;;-1.58;99.16;99224.16;4881192;29;20048;-85
2024/01/05 05:11:50;;;;;;;370.05;106.07;;;;;;;-1.65;99.68;99223.97;4893471;29;20056;-84
2024/01/05 05:14:36;;;;;;;270.50;98.38;;;;;;;-1.71;99.24;99211.53;4901210;29;20040;-84
2024/01/05 05:17:21;;;;;;;260.75;103.55;;;;;;;-1.75;99.36;99215.41;4903326;29;20040;-81
2024/01/05 05:20:07;;;;;;;267.92;101.60;;;;;;;-1.71;99.42;99214.94;4923110;29;20044;-83
2024/01/05 05:22:52;;;;;;;213.30;93.72;;;;;;;-1.66;99.74;99220.53;4881600;29;20044;-82
2024/01/05 05:25:38;;;;;;;267.85;105.70;;;;;;;-1.66;99.29;99224.91;4892909;29;20049;-85
2024/01/05 05:28:23;;;;;;;238.05;88.55;;;;;;;-1.64;99.26;99220.38;4888342;29;20053;-82
2024/01/05 05:31:09;;;;;;;210.63;73.75;;;;;;;-1.58;98.86;99226.78;4900825;29;20049;-85
2024/01/05 05:33:55;;;;;;;294.80;80.15;;;;;;;-1.61;99.18;99227.88;4874579;29;20396;-85
2024/01/05 05:36:40;;;;;;;242.52;79.72;;;;;;;-1.59;99.53;99236.38;4879633;29;20044;-82
2024/01/05 05:39:26;;;;;;;218.80;74.68;;;;;;;-1.62;99.20;99231.47;4900397;29;20379;-85
2024/01/05 05:42:11;;;;;;;255.15;79.10;;;;;;;-1.66;99.63;99232.72;4892162;29;20048;-82
2024/01/05 05:44:57;;;;;;;306.38;80.88;;;;;;;-1.68;99.67;99239.88;4893293;29;20048;-85
2024/01/05 05:47:43;;;;;;;233.98;75.60;;;;;;;-1.75;99.18;99239.69;4886130;29;20044;-84
2024/01/05 05:50:28;;;;;;;303.02;91.32;;;;;;;-1.84;99.44;99237.97;4898858;29;20056;-85
2024/01/05 05:53:14;;;;;;;247.07;94.60;;;;;;;-1.88;99.02;99229.66;4885931;29;20044;-86
2024/01/05 05:56:00;;;;;;;299.95;109.53;;;;;;;-1.86;99.07;99237.28;4899249;29;20048;-81
2024/01/05 05:58:45;;;;;;;335.42;100.28;;;;;;;-1.83;99.01;99233.56;4879121;29;20052;-81
2024/01/05 06:01:31;;;;;;;289.38;84.72;;;;;;;-1.82;99.75;99233.41;4895321;29;20061;-81
2024/01/05 06:04:16;;;;;;;351.15;90.82;;;;;;;-1.80;99.78;99239.31;4887015;29;20070;-86
2024/01/05 06:07:01;;;;;;;279.23;92.85;;;;;;;-1.77;99.22;99233.78;4878878;29;20049;-83
2024/01/05 06:09:47;;;;;;;290.65;81.93;;;;;;;-1.78;99.82;99241.78;4872227;29;20037;-82
2024/01/05 06:12:32;;;;;;;400.15;96.88;;;;;;;-1.77;99.82;99246.00;4899345;29;20052;-83
2024/01/05 06:15:17;;;;;;;288.80;89.18;;;;;;;-1.81;99.21;99239.47;4899091;29;20414;-81
2024/01/05 06:18:03;;;;;;;304.27;94.88;;;;;;;-1.82;99.37;99245.63;4899271;29;20045;-82
2024/01/05 06:20:49;;;;;;;379.95;98.18;;;;;;;-1.90;99.64;99242.00;4884624;29;20052;-82
2024/01/05 06:23:34;;;;;;;324.13;103.18;;;;;;;-1.91;99.87;99245.56;4885488;29;20057;-83
2024/01/05 06:26:20;;;;;;;324.00;116.53;;;;;;;-1.87;99.35;99248.69;4876747;29;20040;-81
2024/01/05 06:29:05;;;;;;;316.73;107.63;;;;;;;-1.87;99.38;99241.69;4889904;29;20044;-82
2024/01/05 06:31:51;;;;;;;314.90;115.50;;;;;;;-1.92;98.97;99245.69;4884562;29;20044;-82
2024/01/05 06:34:37;;;;;;;343.85;116.80;;;;;;;-1.92;99.44;99238.69;4897141;29;20045;-83
2024/01/05 06:37:22;;;;;;;263.20;99.93;;;;;;;-1.95;99.13;99246.81;4899057;29;20037;-82
2024/01/05 06:40:08;;;;;;;270.83;93.95;;;;;;;-2.02;99.74;99237.97;4883849;29;20048;-80
2024/01/05 06:42:54;;;;;;;239.20;92.85;;;;;;;-2.07;98.91;99242.78;4899055;29;20044;-83
2024/01/05 06:45:40;;;;;;;263.65;91.45;;;;;;;-2.13;99.23;99233.81;4899139;29;20483;-80
2024/01/05 06:48:25;;;;;;;737.28;148.55;;;;;;;-2.13;98.94;99231.19;4899170;29;20040;-80
2024/01/05 06:51:11;;;;;;;807.75;150.75;;;;;;;-2.11;99.33;99233.66;4891235;29;20044;-82
2024/01/05 06:53:57;;;;;;;675.72;159.18;;;;;;;-2.14;99.58;99233.94;4898705;29;20048;-80
2024/01/05 06:56:44;;;;;;;512.55;150.50;;;;;;;-1.96;98.89;99239.97;4899072;29;20048;-80
2024/01/05 06:59:30;;;;;;;495.27;147.15;;;;;;;-1.86;98.79;99234.69;4898774;29;20498;-80
2024/01/05 07:02:16;;;;;;;456.27;149.43;;;;;;;-1.80;99.44;99230.66;4898947;29;20044;-80
2024/01/05 07:05:02;;;;;;;390.60;147.00;;;;;;;-1.75;99.50;99242.28;4898671;29;20052;-82
2024/01/05 07:07:46;;;;;;;289.17;130.40;;;;;;;-1.55;99.51;99224.69;4899117;29;20040;-81
2024/01/05 07:10:32;;;;;;;494.33;182.40;;;;;;;-1.59;98.82;99228.56;4898672;29;20048;-83
2024/01/05 07:13:18;;;;;;;529.63;192.30;;;;;;;-1.51;99.34;99239.03;4898578;29;20052;-80
2024/01/05 07:16:04;;;;;;;628.35;206.57;;;;;;;-1.43;98.92;99227.88;4898399;29;20052;-83
2024/01/05 07:18:49;;;;;;;502.15;188.80;;;;;;;-1.28;98.73;99228.94;4877845;29;20052;-84
2024/01/05 07:21:40;;;;;;;574.05;200.15;;;;;;;-1.19;98.78;99225.41;4898640;29;20048;-82
2024/01/05 07:24:26;;;;;;;517.58;205.57;;;;;;;-1.29;98.75;99224.69;4885259;29;20044;-80
2024/01/05 07:27:15;;;;;;;547.45;213.75;;;;;;;-1.14;98.76;99227.53;4898088;29;20036;-80
2024/01/05 07:30:00;;;;;;;554.08;214.32;;;;;;;-1.03;98.68;99231.69;4898381;29;20056;-84
2024/01/05 07:32:46;;;;;;;559.10;205.10;;;;;;;-0.91;98.80;99237.44;4898383;29;20036;-77
2024/01/05 07:35:31;;;;;;;507.13;175.65;;;;;;;-0.78;99.03;99228.22;4898800;29;20049;-75
2024/01/05 07:38:18;;;;;;;574.08;196.32;;;;;;;-0.77;98.23;99223.81;4899266;29;20040;-77
2024/01/05 07:41:03;;;;;;;482.27;185.98;;;;;;;-0.74;98.25;99218.28;4900778;29;20045;-78
2024/01/05 07:43:49;;;;;;;385.55;143.55;;;;;;;-0.61;98.47;99218.66;4904281;29;20048;-77
2024/01/05 07:46:42;;;;;;;431.38;130.95;;;;;;;-0.50;98.61;99220.19;4905218;29;20048;-75
2024/01/05 07:49:28;;;;;;;236.75;84.18;;;;;;;-0.45;98.25;99223.13;4902972;29;20045;-76
2024/01/05 07:52:13;;;;;;;236.68;75.55;;;;;;;-0.39;98.11;99219.88;4902512;29;20052;-76
2024/01/05 07:54:59;;;;;;;312.58;107.28;;;;;;;-0.26;98.11;99222.03;4908470;29;20053;-80
2024/01/05 07:57:45;;;;;;;371.08;151.45;;;;;;;-0.29;98.94;99219.72;4902410;29;20492;-80
2024/01/05 08:00:33;;;;;;;385.10;150.55;;;;;;;-0.43;97.83;99212.53;4902710;29;20052;-81
2024/01/05 08:03:21;;;;;;;421.33;164.07;;;;;;;-0.31;98.23;99214.69;4902795;29;20053;-80
2024/01/05 08:06:06;;;;;;;350.50;142.70;;;;;;;-0.13;97.84;99224.16;4902102;29;20423;-79
2024/01/05 08:08:51;;;;;;;483.02;176.48;;;;;;;-0.09;97.81;99228.13;4902921;29;20495;-81
2024/01/05 08:11:37;;;;;;;382.35;146.55;;;;;;;-0.17;97.91;99228.09;4904664;29;20065;-78
2024/01/05 08:14:22;;;;;;;394.40;146.05;;;;;;;-0.08;97.95;99220.09;4903396;29;20044;-78
2024/01/05 08:17:08;;;;;;;312.13;106.88;;;;;;;-0.17;96.94;99225.47;4901652;29;20044;-80
2024/01/05 08:19:54;;;;;;;369.10;133.43;;;;;;;-0.13;96.79;99222.38;4902529;29;20048;-80
2024/01/05 08:22:39;;;;;;;436.42;126.78;;;;;;;-0.06;96.68;99226.00;4902690;29;20051;-79
2024/01/05 08:25:25;;;;;;;387.30;109.82;;;;;;;-0.08;96.88;99230.53;4902927;29;20049;-79
2024/01/05 08:28:10;;;;;;;358.92;95.85;;;;;;;-0.11;96.77;99230.06;4889119;29;20053;-80
2024/01/05 08:30:56;;;;;;;253.63;81.28;;;;;;;-0.06;96.29;99227.78;4901510;29;20048;-80
2024/01/05 08:33:42;;;;;;;237.35;80.18;;;;;;;-0.10;96.57;99226.44;4901718;29;20056;-80
2024/01/05 08:36:28;;;;;;;233.15;87.00;;;;;;;0.03;95.93;99229.41;4901044;29;20052;-81
2024/01/05 08:39:14;;;;;;;252.68;85.47;;;;;;;0.21;95.94;99232.69;4900187;29;20427;-81
2024/01/05 08:42:01;;;;;;;250.73;92.07;;;;;;;0.44;95.83;99234.69;4901323;29;20067;-81
2024/01/05 08:44:46;;;;;;;198.00;79.55;;;;;;;0.48;95.54;99238.59;4899988;29;20064;-83
2024/01/05 08:47:32;;;;;;;257.80;104.97;;;;;;;0.54;95.96;99239.72;4900954;29;20056;-80
2024/01/05 08:50:17;;;;;;;241.95;110.80;;;;;;;0.59;95.65;99243.47;4901085;29;20484;-78
2024/01/05 08:53:09;;;;;;;247.77;115.00;;;;;;;0.68;95.44;99234.63;4900169;29;20045;-79
2024/01/05 08:55:58;;;;;;;281.05;119.22;;;;;;;0.75;95.86;99242.63;4888625;29;20048;-79
2024/01/05 08:58:44;;;;;;;214.95;99.38;;;;;;;0.85;95.41;99237.25;4900578;29;20056;-78
2024/01/05 09:01:34;;;;;;;224.82;95.68;;;;;;;1.02;95.00;99243.25;4893469;29;20055;-77
2024/01/05 09:04:19;;;;;;;241.70;101.47;;;;;;;1.10;95.11;99236.19;4907507;29;20063;-78
2024/01/05 09:07:05;;;;;;;198.93;95.18;;;;;;;1.29;94.84;99239.41;4901460;29;20044;-77
2024/01/05 09:09:50;;;;;;;261.23;123.05;;;;;;;1.49;95.33;99239.81;4900915;29;20506;-79
2024/01/05 09:12:37;;;;;;;229.57;120.35;;;;;;;1.67;94.88;99244.81;4901386;29;20048;-78
2024/01/05 09:15:23;;;;;;;230.70;124.68;;;;;;;1.84;94.65;99236.66;4901696;29;20052;-82
2024/01/05 09:18:08;;;;;;;258.13;143.80;;;;;;;1.98;94.24;99245.59;4887567;29;20045;-81
2024/01/05 09:20:54;;;;;;;246.48;140.85;;;;;;;2.08;94.40;99240.94;4902113;29;20052;-79
2024/01/05 09:23:41;;;;;;;171.63;95.72;;;;;;;2.28;93.70;99246.53;4900356;29;20044;-79
2024/01/05 09:26:26;;;;;;;252.10;142.10;;;;;;;2.60;93.93;99236.78;4900226;29;20059;-80
2024/01/05 09:29:12;;;;;;;222.05;131.45;;;;;;;2.76;94.20;99234.00;4900624;29;20407;-82
2024/01/05 09:31:57;;;;;;;205.77;123.38;;;;;;;2.98;93.58;99231.50;4900639;29;20491;-82
2024/01/05 09:34:43;;;;;;;128.80;76.15;;;;;;;3.08;93.59;99213.66;4900443;29;20045;-78
2024/01/05 09:37:28;;;;;;;145.05;83.30;;;;;;;3.20;93.02;99204.31;4900521;29;20400;-80
2024/01/05 09:40:14;;;;;;;135.70;76.57;;;;;;;3.33;92.32;99211.56;4906742;29;20071;-80
2024/01/05 09:43:02;;;;;;;130.98;71.63;;;;;;;3.47;91.63;99208.06;4902931;29;20063;-78
2024/01/05 09:45:55;;;;;;;137.00;77.25;;;;;;;3.62;90.46;99201.97;4892965;29;20110;-79
2024/01/05 09:48:42;;;;;;;144.63;81.95;;;;;;;3.88;90.52;99202.25;4900954;29;20403;-78
2024/01/05 09:51:30;;;;;;;125.72;71.68;;;;;;;4.13;90.21;99204.53;4906523;29;20079;-78
2024/01/05 09:54:16;;;;;;;95.60;54.65;;;;;;;4.27;89.25;99189.69;4907801;29;20507;-78
2024/01/05 09:57:03;;;;;;;123.85;72.03;;;;;;;4.41;89.26;99180.88;4901859;29;20391;-77
2024/01/05 09:59:49;;;;;;;122.30;65.13;;;;;;;4.43;89.16;99175.44;4904054;29;20056;-76
2024/01/05 10:02:47;;;;;;;95.80;54.55;;;;;;;4.55;89.02;99177.34;4887021;29;20052;-78
2024/01/05 10:05:33;;;;;;;76.65;44.65;;;;;;;4.66;88.57;99172.56;4887551;29;20052;-79
2024/01/05 10:08:19;;;;;;;73.55;43.17;;;;;;;4.63;87.90;99173.75;4905179;29;20056;-77
2024/01/05 10:11:06;;;;;;;65.18;37.97;;;;;;;4.62;86.74;99167.69;4904166;29;20063;-77
2024/01/05 10:14:00;;;;;;;66.95;38.80;;;;;;;4.77;86.08;99161.50;4909112;29;20096;-77
2024/01/05 10:16:47;;;;;;;169.90;97.28;;;;;;;4.81;85.00;99160.09;4899458;29;20051;-79
2024/01/05 10:19:33;;;;;;;105.43;57.63;;;;;;;5.29;84.92;99155.66;4905817;29;20391;-79
2024/01/05 10:22:21;;;;;;;110.68;66.13;;;;;;;5.45;83.65;99156.31;4903130;29;20056;-80
2024/01/05 10:25:14;;;;;;;122.53;75.70;;;;;;;5.62;84.89;99160.25;4913187;29;20051;-80
2024/01/05 10:28:01;;;;;;;87.40;50.53;;;;;;;5.59;83.59;99151.91;4906989;29;20087;-79
2024/01/05 10:30:47;;;;;;;87.22;51.50;;;;;;;5.89;84.22;99155.00;4901777;29;20402;-79
2024/01/05 10:33:33;;;;;;;89.07;51.15;;;;;;;5.68;82.66;99141.00;4900056;29;20055;-80
2024/01/05 10:36:24;;;;;;;91.43;51.10;;;;;;;6.00;83.96;99136.00;4902680;29;20525;-77
2024/01/05 10:39:10;;;;;;;82.32;46.22;;;;;;;6.17;84.09;99139.88;4891674;29;20065;-78
2024/01/05 10:42:35;;;;;;;60.15;35.83;;;;;;;6.19;82.43;99121.19;4905133;29;20538;-81
2024/01/05 10:45:22;;;;;;;88.47;49.70;;;;;;;6.19;82.41;99110.63;4906404;29;20047;-80
2024/01/05 10:48:09;;;;;;;76.95;46.15;;;;;;;6.28;81.85;99103.31;4901036;29;20056;-78
2024/01/05 10:50:56;;;;;;;75.55;47.47;;;;;;;6.49;82.11;99100.44;4907483;29;20511;-81
2024/01/05 10:53:47;;;;;;;77.78;46.33;;;;;;;6.55;81.31;99098.78;4886899;29;20506;-79
2024/01/05 10:56:44;;;;;;;89.80;47.42;;;;;;;6.67;80.31;99092.66;4905735;29;20056;-79
2024/01/05 10:59:30;;;;;;;64.80;39.03;;;;;;;6.85;79.72;99089.34;4888791;29;20059;-80
2024/01/05 11:02:30;;;;;;;63.85;36.33;;;;;;;7.02;80.48;99080.97;4912328;29;20506;-81
2024/01/05 11:05:18;;;;;;;51.28;28.08;;;;;;;7.17;78.72;99076.22;4896786;29;20055;-80
2024/01/05 11:08:04;;;;;;;31.40;20.50;;;;;;;7.35;78.88;99067.59;4908171;29;20056;-79
2024/01/05 11:10:58;;;;;;;24.50;16.08;;;;;;;7.49;78.38;99060.38;4902944;29;20059;-78
2024/01/05 11:13:49;;;;;;;35.55;20.45;;;;;;;7.39;78.48;99069.59;4888954;29;20514;-78
2024/01/05 11:16:37;;;;;;;31.00;20.45;;;;;;;7.59;80.46;99058.91;4900161;29;20056;-77
2024/01/05 11:19:32;;;;;;;32.92;20.98;;;;;;;7.62;79.00;99047.09;4898882;29;20052;-79
2024/01/05 11:22:38;;;;;;;37.20;24.08;;;;;;;7.74;77.36;99055.13;4900559;29;20051;-79
2024/01/05 11:25:25;;;;;;;41.00;25.88;;;;;;;7.69;77.43;99050.47;4886592;29;20075;-81
2024/01/05 11:28:38;;;;;;;49.55;30.35;;;;;;;7.71;79.59;99042.31;4892806;29;20056;-80
2024/01/05 11:31:45;;;;;;;58.83;35.13;;;;;;;7.74;79.95;99045.38;4900819;29;20071;-79
2024/01/05 11:34:32;;;;;;;68.82;41.47;;;;;;;7.74;79.28;99042.72;4906595;29;20047;-81
2024/01/05 11:37:29;;;;;;;107.25;57.53;;;;;;;7.75;80.08;99031.09;4906551;29;20051;-78
2024/01/05 11:40:28;;;;;;;94.57;58.40;;;;;;;7.70;81.16;99027.47;4882305;29;20056;-81
2024/01/05 11:43:30;;;;;;;97.90;58.22;;;;;;;7.71;82.03;99029.09;4908540;29;20052;-80
2024/01/05 11:46:15;;;;;;;85.90;50.40;;;;;;;7.68;80.52;99022.44;4903954;29;20052;-81
2024/01/05 11:49:02;;;;;;;48.40;31.55;;;;;;;7.53;79.74;99012.16;4904776;29;20407;-79
2024/01/05 11:51:47;;;;;;;41.42;27.13;;;;;;;7.55;79.82;99017.22;4909748;29;20051;-77
2024/01/05 11:54:32;;;;;;;38.67;24.38;;;;;;;7.60;78.09;99020.84;4909940;29;20131;-80
2024/01/05 11:57:18;;;;;;;44.67;27.48;;;;;;;7.58;78.10;99022.06;4900040;29;20048;-81
2024/01/05 12:00:06;;;;;;;46.28;27.60;;;;;;;7.61;79.11;99024.28;4896464;29;20051;-81
2024/01/05 12:03:02;;;;;;;45.10;29.10;;;;;;;7.65;78.15;99025.50;4902142;29;20048;-81
2024/01/05 12:05:52;;;;;;;48.45;31.00;;;;;;;7.74;79.33;99023.38;4902138;29;20063;-81
2024/01/05 12:08:39;;;;;;;62.45;35.15;;;;;;;7.71;77.80;99023.81;4902276;29;20407;-79
2024/01/05 12:11:26;;;;;;;98.78;54.53;;;;;;;7.46;79.03;99021.16;4909481;29;20060;-79
2024/01/05 12:14:24;;;;;;;105.22;61.95;;;;;;;7.51;80.71;99018.69;4901876;29;20059;-81
2024/01/05 12:17:14;;;;;;;89.93;52.58;;;;;;;7.53;80.10;99011.34;4899498;29;20384;-78
2024/01/05 12:20:08;;;;;;;93.68;52.25;;;;;;;7.58;79.69;99019.44;4887171;29;20052;-79
2024/01/05 12:22:54;;;;;;;104.95;56.60;;;;;;;7.53;79.69;99020.09;4900856;29;20051;-78
2024/01/05 12:25:41;;;;;;;88.78;48.22;;;;;;;7.57;79.65;99017.81;4899089;29;20071;-78
2024/01/05 12:28:37;;;;;;;86.85;49.33;;;;;;;7.47;78.74;99028.88;4893250;29;20059;-80
2024/01/05 12:31:23;;;;;;;87.80;49.05;;;;;;;7.56;79.05;99014.38;4906379;29;20146;-80
2024/01/05 12:34:10;;;;;;;88.93;50.55;;;;;;;7.74;79.65;99004.84;4902538;29;20642;-82
2024/01/05 12:37:07;;;;;;;89.47;50.15;;;;;;;7.67;78.43;99012.03;4889502;29;20043;-81
2024/01/05 12:39:53;;;;;;;102.90;61.20;;;;;;;7.75;79.11;99004.66;4892737;29;20051;-78